Time;durP1;ratioP1;P1;durP2;ratioP2;P2;SDS_P1;SDS_P2;PMS_P1;PMS_P2;Temp;Humidity;BMP_temperature;BMP_pressure;BME280_temperature;BME280_humidity;BME280_pressure;Samples;Min_cycle;Max_cycle;Signal;HPM_P1;HPM_P2
2021/12/03 00:24:16;;;;;;;;;;;1.40;99.90;;;;;;5229843;23;19934;-77
2021/12/03 00:26:42;;;;;;;;;;;1.40;99.90;;;;;;4977772;28;19927;-84
2021/12/03 00:29:09;;;;;;;;;;;1.50;99.90;;;;;;4981497;28;19927;-82
2021/12/03 00:31:37;;;;;;;;;;;1.40;99.90;;;;;;4966970;28;19910;-84
2021/12/03 00:34:04;;;;;;;;;;;1.40;99.90;;;;;;4970230;28;19934;-84
2021/12/03 00:36:31;;;;;;;;;;;1.40;99.90;;;;;;4957223;28;19962;-80
2021/12/03 00:38:59;;;;;;;;;;;1.40;99.90;;;;;;4977151;28;19934;-85
2021/12/03 00:41:31;;;;;;;;;;;1.40;99.90;;;;;;4964584;28;19926;-73
2021/12/03 00:43:58;;;;;;;;;;;1.40;99.90;;;;;;4962197;28;19935;-73
2021/12/03 00:46:25;;;;;;;;;;;1.40;99.90;;;;;;4970130;28;19961;-71
2021/12/03 00:48:52;;;;;;;;;;;1.40;99.90;;;;;;4981120;28;19975;-69
2021/12/03 00:51:20;;;;;;;;;;;1.40;99.90;;;;;;4981308;28;19945;-84
2021/12/03 01:11:56;;;;;;;;;;;1.40;99.90;;;;;;5474080;23;19909;-68
2021/12/03 01:14:22;;;;;;;;;;;1.40;99.90;;;;;;5039632;28;19909;-69
2021/12/03 01:47:54;;;;;;;;;;;1.40;99.90;;;;;;5811834;23;19926;-84
2021/12/03 01:50:24;;;;;;;;;;;1.30;99.90;;;;;;4979235;28;19911;-82
2021/12/03 01:52:51;;;;;;;;;;;1.40;99.90;;;;;;4979886;28;19938;-73
2021/12/03 01:55:18;;;;;;;;;;;1.30;99.90;;;;;;4980706;28;19918;-72
2021/12/03 01:57:45;;;;;;;;;;;1.30;99.90;;;;;;4980781;28;20337;-73
2021/12/03 02:00:19;;;;;;;;;;;1.40;99.90;;;;;;4980577;28;19917;-75
2021/12/03 02:02:46;;;;;;;;;;;1.30;99.90;;;;;;4980578;28;19930;-71
2021/12/03 02:05:14;;;;;;;;;;;1.30;99.90;;;;;;4980584;28;19929;-70
2021/12/03 02:07:41;;;;;;;;;;;1.40;99.90;;;;;;4980587;28;19938;-74
2021/12/03 02:10:09;;;;;;;;;;;1.30;99.90;;;;;;4980543;28;19911;-71
2021/12/03 02:12:36;;;;;;;;;;;1.30;99.90;;;;;;4980604;28;19911;-72
2021/12/03 02:15:03;;;;;;;;;;;1.30;99.90;;;;;;4980619;28;19923;-74
2021/12/03 02:17:30;;;;;;;;;;;1.30;99.90;;;;;;4980338;28;19941;-69
2021/12/03 02:19:57;;;;;;;;;;;1.40;99.90;;;;;;4980349;28;19910;-77
2021/12/03 02:27:36;;;;;;;;;;;1.30;99.90;;;;;;5334669;23;19930;-83
2021/12/03 02:30:04;;;;;;;;;;;1.30;99.90;;;;;;4995411;28;20072;-83
2021/12/03 02:32:31;;;;;;;;;;;1.30;99.90;;;;;;4996761;28;19926;-83
2021/12/03 02:34:58;;;;;;;;;;;1.30;99.90;;;;;;4995137;28;19915;-83
2021/12/03 02:37:25;;;;;;;;;;;1.30;99.90;;;;;;4988620;28;19934;-83
2021/12/03 02:39:52;;;;;;;;;;;1.30;99.90;;;;;;4984476;28;19933;-83
2021/12/03 02:42:19;;;;;;;;;;;1.30;99.90;;;;;;4983451;28;19910;-75
2021/12/03 02:44:48;;;;;;;;;;;1.40;99.90;;;;;;4998472;28;19950;-82
2021/12/03 02:47:14;;;;;;;;;;;1.40;99.90;;;;;;5000259;28;19921;-84
2021/12/03 02:49:42;;;;;;;;;;;1.40;99.90;;;;;;4996817;28;19926;-85
2021/12/03 02:52:10;;;;;;;;;;;1.40;99.90;;;;;;4990623;28;19938;-85
2021/12/03 02:54:38;;;;;;;;;;;1.40;99.90;;;;;;4986771;28;19950;-85
2021/12/03 02:57:05;;;;;;;;;;;1.40;99.90;;;;;;4969162;28;19945;-81
2021/12/03 02:59:33;;;;;;;;;;;1.40;99.90;;;;;;5000648;28;19926;-85
2021/12/03 03:02:02;;;;;;;;;;;1.50;99.90;;;;;;4998970;28;19957;-78
2021/12/03 03:04:29;;;;;;;;;;;1.50;99.90;;;;;;5107846;23;19934;-81
2021/12/03 03:06:56;;;;;;;;;;;1.40;99.90;;;;;;4983312;28;19925;-79
2021/12/03 03:09:24;;;;;;;;;;;1.50;99.90;;;;;;4994023;28;19910;-82
2021/12/03 03:11:51;;;;;;;;;;;1.40;99.90;;;;;;4966180;28;19922;-82
2021/12/03 03:14:18;;;;;;;;;;;1.40;99.90;;;;;;4992136;28;19910;-77
2021/12/03 03:16:45;;;;;;;;;;;1.30;99.90;;;;;;4982609;28;19930;-83
2021/12/03 03:19:14;;;;;;;;;;;1.40;99.90;;;;;;4997355;28;19911;-83
2021/12/03 03:24:07;;;;;;;;;;;1.40;99.90;;;;;;5747219;23;19934;-73
2021/12/03 03:29:00;;;;;;;;;;;1.40;99.90;;;;;;5096189;23;19922;-74
2021/12/03 03:31:26;;;;;;;;;;;1.40;99.90;;;;;;4963474;28;19915;-77
2021/12/03 03:33:53;;;;;;;;;;;1.40;99.90;;;;;;4974996;28;19917;-72
2021/12/03 03:39:25;;;;;;;;;;;1.30;99.90;;;;;;5315316;23;19928;-82
2021/12/03 03:41:52;;;;;;;;;;;1.30;99.90;;;;;;4973055;28;20100;-81
2021/12/03 03:44:20;;;;;;;;;;;1.20;99.90;;;;;;4974412;28;19926;-82
2021/12/03 03:46:47;;;;;;;;;;;1.10;99.90;;;;;;4974644;28;19937;-83
2021/12/03 03:49:14;;;;;;;;;;;1.20;99.90;;;;;;4971681;29;19927;-83
2021/12/03 03:51:41;;;;;;;;;;;1.20;99.90;;;;;;4972498;29;19914;-83
2021/12/03 03:54:08;;;;;;;;;;;1.10;99.90;;;;;;4971098;29;19911;-82
2021/12/03 03:56:37;;;;;;;;;;;1.10;99.90;;;;;;4972316;28;19930;-82
2021/12/03 03:59:04;;;;;;;;;;;1.10;99.90;;;;;;4974224;28;19910;-80
2021/12/03 04:01:31;;;;;;;;;;;1.10;99.90;;;;;;4975656;28;19938;-80
2021/12/03 04:03:58;;;;;;;;;;;1.10;99.90;;;;;;4967068;28;19962;-81
2021/12/03 04:06:25;;;;;;;;;;;1.10;99.90;;;;;;5146186;23;19910;-82
2021/12/03 04:08:52;;;;;;;;;;;1.00;99.90;;;;;;4995782;28;19917;-83
2021/12/03 04:11:21;;;;;;;;;;;1.10;99.90;;;;;;4998846;28;19933;-82
2021/12/03 04:13:50;;;;;;;;;;;1.10;99.90;;;;;;4990853;28;19918;-82
2021/12/03 04:16:50;;;;;;;;;;;0.90;99.90;;;;;;4988708;28;19922;-82
2021/12/03 04:19:18;;;;;;;;;;;1.00;99.90;;;;;;4997889;28;19910;-81
2021/12/03 04:21:45;;;;;;;;;;;1.00;99.90;;;;;;5000341;28;19910;-82
2021/12/03 04:24:12;;;;;;;;;;;1.00;99.90;;;;;;4981507;28;19949;-82
2021/12/03 04:26:39;;;;;;;;;;;1.00;99.90;;;;;;4999940;28;19910;-82
2021/12/03 04:29:07;;;;;;;;;;;1.00;99.90;;;;;;4980441;28;19923;-81
2021/12/03 04:31:34;;;;;;;;;;;0.90;99.90;;;;;;4981369;28;19923;-83
2021/12/03 04:34:01;;;;;;;;;;;0.90;99.90;;;;;;4985759;28;19932;-80
2021/12/03 04:36:28;;;;;;;;;;;0.90;99.90;;;;;;4989724;28;19911;-77
2021/12/03 04:38:55;;;;;;;;;;;0.80;99.90;;;;;;4985518;28;19959;-82
2021/12/03 04:41:22;;;;;;;;;;;0.90;99.90;;;;;;4990577;28;19914;-83
2021/12/03 04:43:49;;;;;;;;;;;0.90;99.90;;;;;;4990007;28;19926;-82
2021/12/03 04:46:19;;;;;;;;;;;0.90;99.90;;;;;;4979129;28;19922;-81
2021/12/03 04:48:46;;;;;;;;;;;0.80;99.90;;;;;;4993966;28;20004;-82
2021/12/03 04:51:13;;;;;;;;;;;1.00;99.90;;;;;;4999154;28;19981;-82
2021/12/03 04:53:40;;;;;;;;;;;1.00;99.90;;;;;;4995079;28;19921;-83
2021/12/03 04:56:08;;;;;;;;;;;1.00;99.90;;;;;;4999363;28;19930;-83
2021/12/03 04:58:35;;;;;;;;;;;1.10;99.90;;;;;;4993488;28;19934;-82
2021/12/03 05:01:02;;;;;;;;;;;1.10;99.90;;;;;;4985129;28;20327;-82
2021/12/03 05:03:30;;;;;;;;;;;1.10;99.90;;;;;;4993764;28;19937;-82
2021/12/03 05:06:00;;;;;;;;;;;1.10;99.90;;;;;;4998117;28;19930;-82
2021/12/03 05:08:28;;;;;;;;;;;1.10;99.90;;;;;;4984437;28;19950;-82
2021/12/03 05:10:55;;;;;;;;;;;1.10;99.90;;;;;;4969218;28;19910;-82
2021/12/03 05:13:23;;;;;;;;;;;1.20;99.90;;;;;;4992751;28;19918;-83
2021/12/03 05:15:50;;;;;;;;;;;1.10;99.90;;;;;;4979499;28;19927;-82
2021/12/03 05:18:19;;;;;;;;;;;1.20;99.90;;;;;;4985475;28;19926;-82
2021/12/03 05:20:48;;;;;;;;;;;1.30;99.90;;;;;;4996588;28;19926;-82
2021/12/03 05:23:16;;;;;;;;;;;1.20;99.90;;;;;;4979456;28;19922;-81
2021/12/03 05:28:08;;;;;;;;;;;1.20;99.90;;;;;;5277423;23;19934;-82
2021/12/03 05:30:36;;;;;;;;;;;1.20;99.90;;;;;;4984168;28;19910;-83
2021/12/03 05:35:45;;;;;;;;;;;1.20;99.90;;;;;;5527739;23;19909;-82
2021/12/03 05:38:13;;;;;;;;;;;1.20;99.90;;;;;;5006962;28;19962;-83
2021/12/03 05:40:40;;;;;;;;;;;1.20;99.90;;;;;;5009765;28;19917;-78
2021/12/03 05:43:09;;;;;;;;;;;1.30;99.90;;;;;;5006330;28;20477;-80
2021/12/03 05:45:37;;;;;;;;;;;1.30;99.90;;;;;;4993052;28;19926;-78
2021/12/03 05:48:05;;;;;;;;;;;1.30;99.90;;;;;;5010509;28;19927;-79
2021/12/03 05:50:32;;;;;;;;;;;1.30;99.90;;;;;;5010631;28;19925;-79
2021/12/03 05:53:00;;;;;;;;;;;1.30;99.90;;;;;;4986742;28;19997;-80
2021/12/03 05:55:28;;;;;;;;;;;1.30;99.90;;;;;;5004550;28;19949;-79
2021/12/03 05:57:55;;;;;;;;;;;1.30;99.90;;;;;;5006457;28;19961;-79
2021/12/03 06:00:23;;;;;;;;;;;1.40;99.90;;;;;;4991147;28;20513;-79
2021/12/03 06:02:52;;;;;;;;;;;1.40;99.90;;;;;;4995486;28;19926;-79
2021/12/03 06:05:19;;;;;;;;;;;1.40;99.90;;;;;;4994436;28;19926;-80
2021/12/03 06:07:45;;;;;;;;;;;1.40;99.90;;;;;;5008568;28;19968;-80
2021/12/03 06:10:12;;;;;;;;;;;1.40;99.90;;;;;;5012118;28;20024;-80
2021/12/03 06:12:40;;;;;;;;;;;1.50;99.90;;;;;;5013350;28;19957;-80
2021/12/03 06:15:07;;;;;;;;;;;1.50;99.90;;;;;;5009247;28;19952;-81
2021/12/03 06:17:34;;;;;;;;;;;1.50;99.90;;;;;;5004303;28;20013;-80
2021/12/03 06:20:00;;;;;;;;;;;1.50;99.90;;;;;;4973439;28;19968;-79
2021/12/03 06:22:27;;;;;;;;;;;1.50;99.90;;;;;;5001418;28;19972;-79
2021/12/03 06:24:54;;;;;;;;;;;1.50;99.90;;;;;;4997845;28;19926;-80
2021/12/03 06:27:21;;;;;;;;;;;1.50;99.90;;;;;;5012422;28;19957;-80
2021/12/03 06:29:49;;;;;;;;;;;1.50;99.90;;;;;;5010781;28;19993;-80
2021/12/03 06:32:15;;;;;;;;;;;1.60;99.90;;;;;;5000605;28;19982;-80
2021/12/03 06:34:42;;;;;;;;;;;1.60;99.90;;;;;;5000319;28;19990;-79
2021/12/03 06:37:10;;;;;;;;;;;1.60;99.90;;;;;;4987963;28;20016;-78
2021/12/03 06:39:36;;;;;;;;;;;1.60;99.90;;;;;;4992123;28;19933;-79
2021/12/03 06:42:03;;;;;;;;;;;1.70;99.90;;;;;;4988840;28;19926;-78
2021/12/03 06:44:30;;;;;;;;;;;1.70;99.90;;;;;;4983600;28;19930;-78
2021/12/03 06:47:01;;;;;;;;;;;1.70;99.90;;;;;;4984146;28;20429;-79
2021/12/03 06:49:29;;;;;;;;;;;1.70;99.90;;;;;;4979682;28;20337;-78
2021/12/03 06:52:00;;;;;;;;;;;1.70;99.90;;;;;;4981102;28;19929;-80
2021/12/03 06:54:30;;;;;;;;;;;1.80;99.90;;;;;;4987229;28;20398;-80
2021/12/03 06:56:56;;;;;;;;;;;1.80;99.90;;;;;;4996020;28;19933;-80
2021/12/03 06:59:24;;;;;;;;;;;1.80;99.90;;;;;;4992677;28;20010;-80
2021/12/03 07:01:52;;;;;;;;;;;1.80;99.90;;;;;;4997881;28;19933;-80
2021/12/03 07:04:21;;;;;;;;;;;1.90;99.90;;;;;;5005036;28;20001;-76
2021/12/03 07:06:48;;;;;;;;;;;1.90;99.90;;;;;;4987170;28;19934;-80
2021/12/03 07:09:15;;;;;;;;;;;1.90;99.90;;;;;;4980977;28;21450;-78
2021/12/03 07:11:41;;;;;;;;;;;1.90;99.90;;;;;;4990275;28;19926;-80
2021/12/03 07:14:08;;;;;;;;;;;2.00;99.90;;;;;;4984773;28;19926;-80
2021/12/03 07:16:35;;;;;;;;;;;2.00;99.90;;;;;;4991424;28;19930;-81
2021/12/03 07:19:02;;;;;;;;;;;2.00;99.90;;;;;;4982392;28;19933;-78
2021/12/03 07:21:30;;;;;;;;;;;2.00;99.90;;;;;;5006904;28;19934;-81
2021/12/03 07:23:57;;;;;;;;;;;2.00;99.90;;;;;;4988996;28;19930;-78
2021/12/03 07:26:24;;;;;;;;;;;2.00;99.90;;;;;;4988180;28;19926;-78
2021/12/03 07:28:51;;;;;;;;;;;2.10;99.90;;;;;;4998242;28;19933;-80
2021/12/03 07:31:18;;;;;;;;;;;2.10;99.90;;;;;;4992406;28;19914;-81
2021/12/03 07:33:46;;;;;;;;;;;2.10;99.90;;;;;;4998127;28;19926;-82
2021/12/03 07:36:13;;;;;;;;;;;2.10;99.90;;;;;;4995481;28;19926;-79
2021/12/03 07:38:41;;;;;;;;;;;2.20;99.90;;;;;;4981046;28;20403;-78
2021/12/03 07:41:07;;;;;;;;;;;2.10;99.90;;;;;;4982676;28;20013;-79
2021/12/03 07:43:34;;;;;;;;;;;2.20;99.90;;;;;;4980629;28;19998;-77
2021/12/03 07:46:02;;;;;;;;;;;2.20;99.90;;;;;;4979924;28;19933;-77
2021/12/03 07:48:28;;;;;;;;;;;2.20;99.90;;;;;;4987229;28;20012;-78
2021/12/03 07:50:56;;;;;;;;;;;2.20;99.90;;;;;;4995330;28;19925;-81
2021/12/03 07:53:24;;;;;;;;;;;2.20;99.90;;;;;;5002553;28;19933;-81
2021/12/03 07:55:52;;;;;;;;;;;2.20;99.90;;;;;;4990604;28;20028;-80
2021/12/03 07:58:19;;;;;;;;;;;2.20;99.90;;;;;;4989121;28;19985;-85
2021/12/03 08:00:47;;;;;;;;;;;2.20;99.90;;;;;;5018522;28;19973;-79
2021/12/03 08:03:13;;;;;;;;;;;2.30;99.90;;;;;;5014066;28;19926;-84
2021/12/03 08:05:40;;;;;;;;;;;2.30;99.90;;;;;;5008535;28;19962;-74
2021/12/03 08:08:07;;;;;;;;;;;2.30;99.90;;;;;;5008723;28;19957;-74
2021/12/03 08:10:35;;;;;;;;;;;2.30;99.90;;;;;;5065176;23;19914;-78
2021/12/03 08:13:06;;;;;;;;;;;2.30;99.90;;;;;;4930052;28;19931;-77
2021/12/03 08:15:36;;;;;;;;;;;2.40;99.90;;;;;;4936953;29;19970;-81
2021/12/03 08:18:04;;;;;;;;;;;2.40;99.90;;;;;;4941624;29;19942;-80
2021/12/03 08:20:31;;;;;;;;;;;2.40;99.90;;;;;;4937517;29;19927;-79
2021/12/03 08:22:57;;;;;;;;;;;2.50;99.90;;;;;;4935279;29;19934;-80
2021/12/03 08:25:24;;;;;;;;;;;2.40;99.90;;;;;;4938698;29;19928;-81
2021/12/03 08:27:51;;;;;;;;;;;2.50;99.90;;;;;;4935457;28;19977;-79
2021/12/03 08:30:19;;;;;;;;;;;2.50;99.90;;;;;;4948499;29;19927;-82
2021/12/03 08:32:46;;;;;;;;;;;2.50;99.90;;;;;;4937490;29;20010;-81
2021/12/03 08:35:12;;;;;;;;;;;2.50;99.90;;;;;;4939629;29;19986;-80
2021/12/03 08:37:44;;;;;;;;;;;2.60;99.90;;;;;;4934710;29;20015;-80
2021/12/03 08:40:11;;;;;;;;;;;2.60;99.90;;;;;;4939681;29;20580;-78
2021/12/03 08:42:38;;;;;;;;;;;2.70;99.90;;;;;;4932816;29;19931;-79
2021/12/03 08:45:06;;;;;;;;;;;2.80;99.90;;;;;;4938482;29;19927;-78
2021/12/03 08:47:34;;;;;;;;;;;2.80;99.90;;;;;;4941205;29;19951;-79
2021/12/03 08:50:04;;;;;;;;;;;2.80;99.90;;;;;;4951641;29;19997;-80
2021/12/03 08:52:52;;;;;;;;;;;2.80;99.90;;;;;;4956413;28;19969;-77
2021/12/03 08:55:22;;;;;;;;;;;2.80;99.90;;;;;;4955994;28;19976;-81
2021/12/03 08:57:49;;;;;;;;;;;2.80;99.90;;;;;;4939019;29;19927;-76
2021/12/03 09:00:19;;;;;;;;;;;2.90;99.90;;;;;;4926726;28;21465;-77
2021/12/03 09:02:47;;;;;;;;;;;2.90;99.90;;;;;;4931177;29;19927;-77
2021/12/03 09:05:14;;;;;;;;;;;2.90;99.90;;;;;;4937669;29;19950;-78
2021/12/03 09:07:41;;;;;;;;;;;3.00;99.90;;;;;;4946492;29;19927;-79
2021/12/03 09:10:12;;;;;;;;;;;3.00;99.90;;;;;;4934912;29;19927;-79
2021/12/03 09:12:39;;;;;;;;;;;3.10;99.90;;;;;;4932054;29;19974;-78
2021/12/03 09:15:09;;;;;;;;;;;3.20;99.90;;;;;;4939304;29;19930;-78
2021/12/03 09:17:42;;;;;;;;;;;3.30;99.90;;;;;;4931071;29;19957;-78
2021/12/03 09:20:22;;;;;;;;;;;3.30;99.90;;;;;;4929803;29;19983;-78
2021/12/03 09:22:51;;;;;;;;;;;3.30;99.90;;;;;;4939082;29;19926;-76
2021/12/03 09:25:22;;;;;;;;;;;3.30;99.90;;;;;;4929963;29;20021;-75
2021/12/03 09:27:49;;;;;;;;;;;3.30;99.90;;;;;;4922132;29;20021;-75
2021/12/03 09:30:17;;;;;;;;;;;3.40;99.90;;;;;;4922883;29;20018;-77
2021/12/03 09:32:48;;;;;;;;;;;3.50;99.90;;;;;;4932036;29;20946;-75
2021/12/03 09:35:16;;;;;;;;;;;3.50;99.90;;;;;;4934977;29;19927;-77
2021/12/03 09:37:43;;;;;;;;;;;3.50;99.90;;;;;;4937023;29;20026;-77
2021/12/03 09:40:18;;;;;;;;;;;3.50;99.90;;;;;;4934637;29;19950;-78
2021/12/03 09:42:46;;;;;;;;;;;3.60;99.90;;;;;;4942118;29;19933;-80
2021/12/03 09:45:13;;;;;;;;;;;3.50;99.90;;;;;;4945358;29;19954;-78
2021/12/03 09:47:39;;;;;;;;;;;3.60;99.90;;;;;;4951838;29;19978;-81
2021/12/03 09:50:12;;;;;;;;;;;3.70;99.90;;;;;;4939814;29;19974;-80
2021/12/03 09:52:46;;;;;;;;;;;3.70;99.90;;;;;;4946205;29;19961;-80
2021/12/03 09:55:13;;;;;;;;;;;3.60;99.90;;;;;;4951152;29;19926;-79
2021/12/03 09:57:44;;;;;;;;;;;3.60;99.90;;;;;;4945981;29;19994;-80
2021/12/03 10:00:18;;;;;;;;;;;3.60;99.90;;;;;;4943800;29;19927;-79
2021/12/03 10:13:49;;;;;;;;;;;3.80;99.90;;;;;;4940763;29;19959;-80
2021/12/03 10:16:29;;;;;;;;;;;3.90;99.90;;;;;;4949160;29;19926;-80
2021/12/03 10:18:57;;;;;;;;;;;3.90;99.90;;;;;;4949527;29;19953;-79
2021/12/03 10:21:46;;;;;;;;;;;4.00;99.90;;;;;;4946228;29;19989;-80
2021/12/03 10:24:50;;;;;;;;;;;4.00;99.90;;;;;;4950623;29;19930;-80
2021/12/03 10:27:48;;;;;;;;;;;4.00;99.90;;;;;;4937918;29;19934;-80
2021/12/03 10:30:29;;;;;;;;;;;4.10;99.90;;;;;;4935740;28;20029;-77
2021/12/03 10:33:11;;;;;;;;;;;4.10;99.90;;;;;;4938849;29;19934;-77
2021/12/03 10:38:31;;;;;;;;;;;4.10;99.90;;;;;;4951295;29;19934;-81
2021/12/03 10:41:18;;;;;;;;;;;4.20;99.90;;;;;;4959306;28;19926;-81
2021/12/03 10:44:03;;;;;;;;;;;4.20;99.90;;;;;;4957509;28;19992;-81
2021/12/03 10:46:53;;;;;;;;;;;4.20;99.90;;;;;;4954566;29;19943;-81
2021/12/03 10:49:38;;;;;;;;;;;4.30;99.90;;;;;;4954529;28;19911;-82
2021/12/03 10:52:20;;;;;;;;;;;4.30;99.90;;;;;;4960914;28;19946;-77
2021/12/03 11:31:40;;;;;;;;;;;4.60;99.90;;;;;;4959312;29;19969;-79
2021/12/03 12:42:36;;;;;;;;;;;4.70;99.90;;;;;;5044055;23;19926;-82
2021/12/03 12:45:35;;;;;;;;;;;4.60;99.90;;;;;;4975890;28;19927;-78
2021/12/03 13:13:42;;;;;;;;;;;4.40;99.90;;;;;;4956783;28;19978;-79
2021/12/03 13:19:18;;;;;;;;;;;4.20;99.90;;;;;;4955477;28;19933;-82
2021/12/03 14:07:00;;;;;;;;;;;4.00;99.90;;;;;;4958396;28;19982;-77
2021/12/03 14:48:46;;;;;;;;;;;4.00;99.90;;;;;;4942897;28;19927;-77
2021/12/03 14:54:18;;;;;;;;;;;3.90;99.90;;;;;;4962369;29;19985;-81
2021/12/03 14:57:16;;;;;;;;;;;3.90;99.90;;;;;;4972437;28;19936;-80
2021/12/03 15:00:07;;;;;;;;;;;3.90;99.90;;;;;;4969733;28;19936;-83
2021/12/03 15:02:49;;;;;;;;;;;3.90;99.90;;;;;;5326868;23;19911;-81
2021/12/03 15:05:33;;;;;;;;;;;3.90;99.90;;;;;;4955693;28;19927;-81
2021/12/03 15:08:05;;;;;;;;;;;3.90;99.90;;;;;;4957101;28;19930;-81
2021/12/03 15:10:42;;;;;;;;;;;3.80;99.90;;;;;;4941801;28;19934;-79
2021/12/03 15:13:28;;;;;;;;;;;3.90;99.90;;;;;;4956349;28;19982;-75
2021/12/03 15:27:12;;;;;;;;;;;3.80;99.90;;;;;;4986749;28;19933;-75
2021/12/03 15:30:14;;;;;;;;;;;3.80;99.90;;;;;;4984942;28;19930;-81
2021/12/03 15:32:44;;;;;;;;;;;3.80;99.90;;;;;;4978551;28;19926;-81
2021/12/03 15:35:16;;;;;;;;;;;3.80;99.90;;;;;;4988411;28;19942;-82
2021/12/03 15:52:24;;;;;;;;;;;3.80;99.90;;;;;;4990611;28;19921;-80
2021/12/03 15:58:01;;;;;;;;;;;3.80;99.90;;;;;;4984323;28;19934;-83
2021/12/03 16:06:15;;;;;;;;;;;3.80;99.90;;;;;;5019778;23;19926;-79
2021/12/03 16:08:44;;;;;;;;;;;3.80;99.90;;;;;;4974885;28;19917;-80
2021/12/03 16:11:21;;;;;;;;;;;3.80;99.90;;;;;;4967828;28;19930;-82
2021/12/03 16:13:52;;;;;;;;;;;3.80;99.90;;;;;;4954045;29;19915;-81
2021/12/03 16:21:48;;;;;;;;;;;3.80;99.90;;;;;;5030994;23;19918;-72
2021/12/03 16:27:25;;;;;;;;;;;3.80;99.90;;;;;;4999390;28;19970;-78
2021/12/03 16:46:41;;;;;;;;;;;3.80;99.90;;;;;;4960831;28;19930;-80
2021/12/03 16:51:53;;;;;;;;;;;3.70;99.90;;;;;;4963740;28;19988;-79
2021/12/03 16:54:26;;;;;;;;;;;3.70;99.90;;;;;;4960703;28;19934;-78
2021/12/03 16:56:54;;;;;;;;;;;3.70;99.90;;;;;;4964687;28;19921;-80
2021/12/03 16:59:22;;;;;;;;;;;3.70;99.90;;;;;;4961521;28;19938;-80
2021/12/03 17:01:53;;;;;;;;;;;3.70;99.90;;;;;;4967236;28;19930;-80
2021/12/03 17:04:37;;;;;;;;;;;3.70;99.90;;;;;;4980540;28;19977;-81
2021/12/03 17:49:02;;;;;;;;;;;3.80;99.90;;;;;;4957070;28;20009;-77
2021/12/03 17:57:12;;;;;;;;;;;3.80;99.90;;;;;;4946911;28;19926;-77
2021/12/03 17:59:43;;;;;;;;;;;3.80;99.90;;;;;;4961292;28;20034;-77
2021/12/03 18:02:18;;;;;;;;;;;3.80;99.90;;;;;;4968524;28;19927;-75
2021/12/03 18:07:50;;;;;;;;;;;3.80;99.90;;;;;;4939390;28;19926;-76
2021/12/03 18:10:36;;;;;;;;;;;3.80;99.90;;;;;;4962793;28;19981;-78
2021/12/03 18:16:27;;;;;;;;;;;3.70;99.90;;;;;;4931128;29;19927;-76
2021/12/03 18:43:59;;;;;;;;;;;3.80;99.90;;;;;;4972081;28;20370;-81
2021/12/03 18:49:37;;;;;;;;;;;3.80;99.90;;;;;;4961924;28;20036;-79
2021/12/03 18:52:14;;;;;;;;;;;3.80;99.90;;;;;;4967179;28;19956;-80
2021/12/03 18:54:46;;;;;;;;;;;3.80;99.90;;;;;;4969746;28;20639;-79
2021/12/03 18:57:14;;;;;;;;;;;3.80;99.90;;;;;;4968647;28;19926;-79
2021/12/03 18:59:51;;;;;;;;;;;3.80;99.90;;;;;;4967154;28;19934;-81
2021/12/03 19:02:20;;;;;;;;;;;3.80;99.90;;;;;;4967389;28;19934;-77
2021/12/03 19:04:52;;;;;;;;;;;3.90;99.90;;;;;;4972827;28;19926;-81
2021/12/03 19:07:22;;;;;;;;;;;3.90;99.90;;;;;;4969997;28;19926;-80
2021/12/03 19:09:52;;;;;;;;;;;3.90;99.90;;;;;;4984631;23;19973;-79
2021/12/03 19:12:21;;;;;;;;;;;4.00;99.90;;;;;;4971496;28;19985;-77
2021/12/03 19:14:50;;;;;;;;;;;3.90;99.90;;;;;;4981131;23;19934;-78
2021/12/03 19:17:17;;;;;;;;;;;4.00;99.90;;;;;;4959919;28;19930;-79
2021/12/03 19:19:45;;;;;;;;;;;4.00;99.90;;;;;;4955202;28;19934;-79
2021/12/03 19:22:15;;;;;;;;;;;4.00;99.90;;;;;;4957882;28;19930;-79
2021/12/03 19:24:42;;;;;;;;;;;4.00;99.90;;;;;;4961105;28;19934;-78
2021/12/03 19:27:11;;;;;;;;;;;4.00;99.90;;;;;;4967435;28;19988;-80
2021/12/03 19:29:39;;;;;;;;;;;4.00;99.90;;;;;;4964731;28;19937;-79
2021/12/03 19:32:06;;;;;;;;;;;4.00;99.90;;;;;;4971045;28;19933;-79
2021/12/03 19:34:33;;;;;;;;;;;4.00;99.90;;;;;;4966122;28;19926;-80
2021/12/03 19:37:00;;;;;;;;;;;4.00;99.90;;;;;;4982390;28;20169;-81
2021/12/03 19:42:07;;;;;;;;;;;4.00;99.90;;;;;;5080673;23;19933;-79
2021/12/03 19:44:39;;;;;;;;;;;4.00;99.90;;;;;;4971097;28;19927;-76
2021/12/03 19:47:06;;;;;;;;;;;4.10;99.90;;;;;;4960407;28;19926;-78
2021/12/03 19:49:42;;;;;;;;;;;4.00;99.90;;;;;;4960665;28;20025;-81
2021/12/03 19:52:12;;;;;;;;;;;4.00;99.90;;;;;;4966972;28;20303;-77
2021/12/03 19:54:39;;;;;;;;;;;4.10;99.90;;;;;;4956829;28;19986;-78
2021/12/03 19:59:50;;;;;;;;;;;4.00;99.90;;;;;;4987280;23;20690;-81
2021/12/03 20:02:17;;;;;;;;;;;4.00;99.90;;;;;;5005244;28;19948;-80
2021/12/03 20:04:46;;;;;;;;;;;4.00;99.90;;;;;;5008512;28;19922;-81
2021/12/03 20:07:13;;;;;;;;;;;4.00;99.90;;;;;;5020871;28;19933;-78
2021/12/03 20:09:45;;;;;;;;;;;4.10;99.90;;;;;;5013699;28;19945;-77
2021/12/03 20:12:17;;;;;;;;;;;4.10;99.90;;;;;;4986390;28;19949;-80
2021/12/03 20:14:45;;;;;;;;;;;4.00;99.90;;;;;;5012594;28;19921;-80
2021/12/03 20:17:16;;;;;;;;;;;4.10;99.90;;;;;;5002864;28;19910;-76
2021/12/03 20:19:47;;;;;;;;;;;4.00;99.90;;;;;;4996166;28;19910;-73
2021/12/03 20:22:17;;;;;;;;;;;4.10;99.90;;;;;;5020176;28;19929;-79
2021/12/03 20:25:01;;;;;;;;;;;4.10;99.90;;;;;;5001845;28;19916;-71
2021/12/03 20:27:39;;;;;;;;;;;4.10;99.90;;;;;;5009797;28;19950;-71
2021/12/03 20:38:24;;;;;;;;;;;4.10;99.90;;;;;;5263826;23;19926;-80
2021/12/03 20:40:53;;;;;;;;;;;4.00;99.90;;;;;;4989700;28;19922;-81
2021/12/03 20:43:31;;;;;;;;;;;4.00;99.90;;;;;;4996930;28;19926;-83
2021/12/03 20:51:32;;;;;;;;;;;4.10;99.90;;;;;;5117194;23;19909;-73
2021/12/03 20:54:18;;;;;;;;;;;4.10;99.90;;;;;;5020129;28;19941;-70
2021/12/03 20:59:43;;;;;;;;;;;4.10;99.90;;;;;;5020254;28;19917;-70
2021/12/03 21:08:05;;;;;;;;;;;4.10;99.90;;;;;;5018084;28;19975;-81
2021/12/03 21:10:42;;;;;;;;;;;4.10;99.90;;;;;;5019912;28;19941;-75
2021/12/03 21:13:11;;;;;;;;;;;4.10;99.90;;;;;;5019144;28;19933;-78
2021/12/03 21:21:33;;;;;;;;;;;4.10;99.90;;;;;;4884215;29;19919;-75
2021/12/03 21:24:00;;;;;;;;;;;4.10;99.90;;;;;;5013244;28;19922;-78
2021/12/03 21:26:30;;;;;;;;;;;4.10;99.90;;;;;;5018421;28;19933;-78
2021/12/03 21:29:05;;;;;;;;;;;4.10;99.90;;;;;;5012470;28;19910;-78
2021/12/03 21:31:36;;;;;;;;;;;4.10;99.90;;;;;;5297925;23;19926;-76
2021/12/03 21:39:52;;;;;;;;;;;4.20;99.90;;;;;;5439571;23;20040;-81
2021/12/03 21:42:20;;;;;;;;;;;4.20;99.90;;;;;;4988658;28;19917;-81
2021/12/03 21:44:48;;;;;;;;;;;4.20;99.90;;;;;;5001907;28;19949;-82
2021/12/03 21:47:16;;;;;;;;;;;4.20;99.90;;;;;;4998122;28;19926;-82
2021/12/03 21:49:43;;;;;;;;;;;4.20;99.90;;;;;;4994567;28;19911;-74
2021/12/03 21:52:10;;;;;;;;;;;4.20;99.90;;;;;;4984389;28;19938;-70
2021/12/03 21:57:06;;;;;;;;;;;4.20;99.90;;;;;;5141934;23;19911;-82
2021/12/03 21:59:33;;;;;;;;;;;4.20;99.90;;;;;;4982651;28;19910;-80
2021/12/03 22:02:01;;;;;;;;;;;4.20;99.90;;;;;;4976965;28;19914;-74
2021/12/03 22:07:10;;;;;;;;;;;4.20;99.90;;;;;;5010326;23;19953;-81
2021/12/03 22:09:37;;;;;;;;;;;4.20;99.90;;;;;;4992042;28;19911;-81
2021/12/03 22:12:04;;;;;;;;;;;4.20;99.90;;;;;;4990536;28;19933;-77
2021/12/03 22:14:31;;;;;;;;;;;4.20;99.90;;;;;;4999833;28;19926;-81
2021/12/03 22:16:58;;;;;;;;;;;4.20;99.90;;;;;;4989888;28;19912;-78
2021/12/03 22:19:25;;;;;;;;;;;4.20;99.90;;;;;;4991419;28;19934;-83
2021/12/03 22:21:53;;;;;;;;;;;4.20;99.90;;;;;;4988629;28;19910;-82
2021/12/03 22:34:33;;;;;;;;;;;4.20;99.90;;;;;;1407486;26;20079;-79
2021/12/03 22:37:02;;;;;;;;;;;4.20;99.90;;;;;;5014924;28;19910;-81
2021/12/03 22:39:32;;;;;;;;;;;4.20;99.90;;;;;;5004591;28;19930;-78
2021/12/03 22:47:16;;;;;;;;;;;4.20;99.90;;;;;;5378349;23;19914;-71
2021/12/03 22:54:55;;;;;;;;;;;4.20;99.90;;;;;;5614996;23;19910;-78
2021/12/03 23:10:19;;;;;;;;;;;4.20;99.90;;;;;;5070862;23;19917;-69
2021/12/03 23:12:46;;;;;;;;;;;4.20;99.90;;;;;;4983220;28;19962;-69
2021/12/03 23:15:13;;;;;;;;;;;4.20;99.90;;;;;;4966678;28;19979;-70
2021/12/03 23:17:39;;;;;;;;;;;4.20;99.90;;;;;;4963979;28;19911;-74
2021/12/03 23:20:07;;;;;;;;;;;4.20;99.90;;;;;;4948725;28;19917;-73
2021/12/03 23:22:33;;;;;;;;;;;4.20;99.90;;;;;;4983109;28;19950;-73
2021/12/03 23:25:01;;;;;;;;;;;4.30;99.90;;;;;;4982987;28;19914;-70
2021/12/03 23:27:29;;;;;;;;;;;4.30;99.90;;;;;;4983047;28;19918;-72
2021/12/03 23:29:56;;;;;;;;;;;4.30;99.90;;;;;;4982933;28;19911;-75
2021/12/03 23:32:23;;;;;;;;;;;4.30;99.90;;;;;;4982744;28;19927;-73
2021/12/03 23:34:50;;;;;;;;;;;4.30;99.90;;;;;;4982939;28;19911;-74
2021/12/03 23:37:17;;;;;;;;;;;4.30;99.90;;;;;;4973092;28;19911;-71
2021/12/03 23:39:44;;;;;;;;;;;4.30;99.90;;;;;;4976364;28;19919;-70
2021/12/03 23:42:11;;;;;;;;;;;4.30;99.90;;;;;;4982784;28;19910;-71
2021/12/03 23:44:39;;;;;;;;;;;4.30;99.90;;;;;;4982667;28;19914;-71
2021/12/03 23:47:05;;;;;;;;;;;4.30;99.90;;;;;;4982745;28;19969;-71
2021/12/03 23:49:32;;;;;;;;;;;4.40;99.90;;;;;;4982588;28;19910;-69
2021/12/03 23:51:59;;;;;;;;;;;4.40;99.90;;;;;;4982645;28;19911;-72
2021/12/03 23:54:27;;;;;;;;;;;4.40;99.90;;;;;;4982546;28;19941;-69